默认 日期 大小 文件数 浏览量 最新下载 xml
2011.04磁力链接相关资源由用户搜索指令自动获取,结果来源于网络,本站不存储任何资料,亦不承担任何责任,请于24小时内删除,搜索到3492个磁力,用时22ms。
    {"Parmenides.txt": 1387, "Parmenides - Night Waves R3 2011-04-19.mp3": 16471933}
创建时间: 2019-01-18 04:00:55 大小:15.71 MB 文件数量:2 热度:5 最近下载:2022-11-15 18:55:43
    {"Setup": {"hr.exe": 8415558}, "brd.nfo": 14590, "file_id.diz": 499, "Patched files": {"hddreg.exe": 1876704, "_README.TXT": 780, "HDD Regenerator.exe": 1954544}, "Keygen and Patch": {"Patch.exe": 62976, "keygen.exe": 80384}}
创建时间: 2019-01-18 16:37:50 大小:11.83 MB 文件数量:8 热度:6 最近下载:2025-02-18 20:19:34
    {"00hr_p1_hr343 [Sophia Jade - Cuddle Me]": {"001.jpg": 604552, "002.jpg": 632814, "003.jpg": 667933, "004.jpg": 656810, "005.jpg": 703183, "006.jpg": 694018, "007.jpg": 639037, "008.jpg": 657517, "009.jpg": 693619, "010.jpg": 803805, "011.jpg": 792697, " ...
创建时间: 2019-01-18 22:02:49 大小:539.34 MB 文件数量:1033 热度:6 最近下载:2025-02-05 05:23:03
    {"截图1.jpg": 178016, "截图2.jpg": 173242, "截图3.jpg": 112522, "Fist.of.Legend.jpg": 78942, "精武英雄.Fist.of.Legend.1994.720p.BluRay.x284.AC3-CNXP.mkv": 2377897619, "_____padding_file_0_如果您看到此文件,请升级到BitComet(比特彗星)0.85或以上版本____": 445346, "_____padding_file_1_如果您看到此 ...
创建时间: 2019-01-18 22:07:52 大小:2.22 GB 文件数量:9 热度:282 最近下载:2025-10-14 12:44:03
    {"�ƺ�.jpg": 80761, "�ƺ�.txt": 12818, "��ͼ1.jpg": 94074, "��ͼ2.jpg": 71278, "��ͼ3.jpg": 97018, "Ӱ�ӵ۹�(bbs.cnxp.com).�ƺ�.Hwanghae.2010.HDRip.480p.rmvb": 1070848961, "Ӱ�ӵ۹�(bbs.cnxp.com).�ƺ�.Hwanghae.2010.HDRip.720p.rmvb": 2133603759}
创建时间: 2019-01-19 05:32:50 大小:2.98 GB 文件数量:7 热度:4 最近下载:2022-11-12 12:26:02
    ... 96253, "2011-04-04 - Mia Angelo - Angel - Anton Serov.jpeg": 88303, "2011-04-18 - ... "2011-04-04 - Mia Angelo - Angel - Anton Serov - 1-04.wmv.jpg": 2211753, "2011-04- ... , "2011-04-04 - Mia Angelo - Angel - Anton Serov - 1-04.wmv": 581738785, "2011-04-18 ...
创建时间: 2019-01-20 05:02:46 大小:3.26 GB 文件数量:19 热度:6 最近下载:2022-11-12 12:58:53
    {"AmourAngels-0005.jpg": 3878032, "AmourAngels-0015.jpg": 8295481, "AmourAngels-0016.jpg": 3619493, "AmourAngels-0017.jpg": 5089997, "AmourAngels-0018.jpg": 4934873, "AmourAngels-0020.jpg": 3696821, "AmourAngels-0023.jpg": 5682480, "AmourAngels-0025.jpg": ...
创建时间: 2019-01-20 22:34:16 大小:320.47 MB 文件数量:70 热度:5 最近下载:2022-11-15 20:13:22
    {"Score April 2011": {"Veronika_1600": {"Veronika01.jpg": 306889, "Veronika02. ... , "DaphneRosen74.jpg": 355915}}, "Voluptuous April 2011": {"KaliWest_1600": {"KaliWest01.jpg": 405773, "KaliWest02 ...
创建时间: 2019-01-22 00:03:33 大小:427.6 MB 文件数量:1166 热度:9 最近下载:2025-03-16 11:14:03
    {"截图1.jpg": 58473, "截图2.jpg": 97502, "截图3.jpg": 75188, "National.Treasure.jpg": 256720, "National.Treasure.txt": 7715, "国家宝藏.National.Treasure.2004.720p.BluRay.x264.AC3-CNXP.mkv": 2798675813, "_____padding_file_0_如果您看到此文件,请升级到BitComet(比特彗星)0.85或以上版本____": ...
创建时间: 2019-01-22 04:06:34 大小:2.61 GB 文件数量:11 热度:39 最近下载:2025-08-27 23:34:03
    ... ": 30064950, "space age toasters 2011-04-19 t02.flac": 43441451, ... "space age toasters 2011-04-19 t03.flac": 57061011, ... stooges 2011-04-19": {"02. iggy and the stooges 2011-04-19. ... 31069978, "iggy and the stooges 2011-04-19 t21.flac": 51321225}, " ...
创建时间: 2019-01-22 05:54:35 大小:1.39 GB 文件数量:28 热度:7 最近下载:2025-03-13 20:01:48
    {"x-art_tiffany_absolutely_gorgeous_1.jpg": 262326, "x-art_tiffany_absolutely_gorgeous_2.jpg": 98953, "x-art_tiffany_absolutely_gorgeous_720.wmv": 178572065}
创建时间: 2019-01-22 10:03:56 大小:170.64 MB 文件数量:3 热度:16 最近下载:2025-09-15 00:46:02
    {"Ready.For.Love.1980.BluRay.1080p.x264.DTS-MySiLU.mkv": 9392170579, "Ready.For.Love.1980.BluRay.1080p.x264.DTS-MySiLU.nfo": 3698, "Ready.For.Love.1980.BluRay.1080p.x264.DTS-MySiLU.Sample.mkv": 82594335}
创建时间: 2019-01-22 18:50:51 大小:8.82 GB 文件数量:3 热度:12 最近下载:2025-02-22 05:04:01
    {"[����][NHK��¼Ƭ]���޹��㲥����̫ƽ��ս��.srt": 122975, "[����][NHK��¼Ƭ]���޹��㲥����̫ƽ��ս��.wmv": 678675164}
创建时间: 2019-01-23 09:21:56 大小:647.35 MB 文件数量:2 热度:6 最近下载:2024-12-24 13:05:03
    {"1440 x 900": {"reWalls.com_9.jpg": 729794, "reWalls.com_18.jpg": 264716, "reWalls.com_34.jpg": 580850, "reWalls.com_47.jpg": 505433, "reWalls.com_84.jpg": 324847, "reWalls.com_262.jpg": 425352, "reWalls.com_280.jpg": 427235}, "1600 x 900": {"reWalls. ...
创建时间: 2019-01-23 22:18:22 大小:201.53 MB 文件数量:300 热度:4 最近下载:2022-11-12 10:02:00
    {"model-bio_Kristel-A.txt": 544, "_MetArt-Presenting-Kristel-cover.jpg": 58619, "MetArt-Presenting-Kristel-cover-clean.jpg": 40324, "MetArt_Presenting-Kristel_Kristel-A_by_Rylsky_high_0001.jpg": 2543901, "MetArt_Presenting-Kristel_Kristel- ...
创建时间: 2019-01-24 06:54:15 大小:225.35 MB 文件数量:123 热度:11 最近下载:2025-02-05 18:51:04
    ... 128191, "CocomiSakuraAlienProportions_2011-04-08_001xxxxl.jpg": 2536399, "CocomiSakuraAlienProportions_2011-04-08_002xxxxl.jpg": ... , "CocomiSakuraAlienProportions_2011-04-08_063xxxxl.jpg": 3948293, "CocomiSakuraAlienProportions_2011-04-08_064xxxxl.jpg": ...
创建时间: 2019-01-24 20:38:06 大小:196.71 MB 文件数量:65 热度:26 最近下载:2025-06-10 02:11:02
    {"RealTimeBondage.2011.04.30.Lil.Nikki.Nymph.XXX.720p.MP4-hUSHhUSH.mp4": 508111486}
创建时间: 2019-01-27 19:29:06 大小:484.57 MB 文件数量:1 热度:9 最近下载:2025-01-14 16:09:02
    {"ry_23_201104.avi": 361077532, "fullmoviecover.jpg": 79472}
创建时间: 2019-01-28 17:36:51 大小:344.43 MB 文件数量:2 热度:17 最近下载:2025-10-03 19:25:05
    ... , "[2011.04.09] E244 쩐의 전쟁1.avi": 817201152, "[2011.03.19 ... 타인의 삶 박명수1.avi": 1048178688, "[2011.04.02] E243 타인의 삶 정준하2.avi ... 3, 타인의 삶 정준하1.avi": 812699648, "[2011.03.12] E240 정총무의 책책책 책 좀 읽읍시다, ...
创建时间: 2019-01-28 18:58:40 大小:12.31 GB 文件数量:15 热度:6 最近下载:2022-11-15 19:01:16
    ... Snatched The Baby.mp3": 11746037, "04. The World Of The Workers ...
创建时间: 2019-01-29 01:12:36 大小:147.28 MB 文件数量:20 热度:5 最近下载:2022-11-12 12:40:12